Terminal Aerodrome Forecast
Issued by NWS

Home | Current Version | Previous Version | Graphics & Text | Print | Product List | Glossary Off
Versions: 1 2 3 4 5 6 7 8 9 10 11 12 13

000
FTUS43 KGRB 211721
TAFAUW
TAF
KAUW 211721Z 2118/2218 17012G18KT P6SM SCT050 BKN090
     FM220000 16010KT P6SM SCT025 BKN040 WS018/19040KT
     FM220300 16011KT P6SM SCT020 OVC040 WS018/20045KT PROB30
      2204/2207 5SM -SHRA BR BKN020
     FM220700 18010KT P6SM -SHRA SCT018 OVC035 WS018/20040KT
      TEMPO 2207/2211 4SM -TSRA BR BKN018CB
     FM221100 22008KT 5SM -SHRA BR OVC015
     FM221500 28008KT P6SM VCSH SCT020 OVC040=

USA.gov is the U.S. government's official web portal to all federal, state and local government web resources and services.